createdAt,value
2022-09-23T00:02:29.925Z,91.57
2022-09-23T00:05:33.117Z,91.24
2022-09-23T00:08:35.241Z,91.68
2022-09-23T00:11:38.323Z,92.43
2022-09-23T00:14:40.301Z,92.70
2022-09-23T00:17:42.581Z,93.58
2022-09-23T00:20:45.164Z,93.05
2022-09-23T00:23:47.638Z,93.70
2022-09-23T00:26:49.737Z,93.33
2022-09-23T00:29:51.985Z,93.48
2022-09-23T00:32:54.023Z,93.37
2022-09-23T00:36:04.443Z,93.72
2022-09-23T00:39:06.661Z,93.34
2022-09-23T00:42:18.849Z,93.40
2022-09-23T00:45:21.067Z,93.75
2022-09-23T00:48:23.397Z,93.50
2022-09-23T00:51:31.467Z,93.66
2022-09-23T00:54:34.076Z,93.45
2022-09-23T00:57:37.550Z,93.18
2022-09-23T01:00:39.881Z,92.81
2022-09-23T01:03:44.901Z,93.38
2022-09-23T01:07:09.145Z,94.90
2022-09-23T01:10:13.740Z,94.14
2022-09-23T01:13:23.261Z,94.34
2022-09-23T01:16:36.346Z,94.38
2022-09-23T01:20:04.054Z,93.75
2022-09-23T01:23:46.689Z,92.99
2022-09-23T01:26:57.942Z,93.10
2022-09-23T01:30:12.227Z,93.19
2022-09-23T01:33:30.686Z,92.44
2022-09-23T01:36:42.381Z,91.48
2022-09-23T01:39:53.941Z,90.17
2022-09-23T01:43:15.679Z,90.21
2022-09-23T01:46:22.206Z,89.12
2022-09-23T01:49:39.011Z,87.63
2022-09-23T01:52:47.247Z,87.25
2022-09-23T01:55:52.136Z,87.03
2022-09-23T01:59:06.011Z,87.97
2022-09-23T02:02:15.315Z,86.62
2022-09-23T02:05:37.727Z,86.96
2022-09-23T02:09:08.275Z,84.96
2022-09-23T02:12:15.780Z,84.43
2022-09-23T02:15:29.341Z,84.05
2022-09-23T02:18:42.622Z,84.17
2022-09-23T02:21:55.464Z,83.78
2022-09-23T02:24:57.918Z,83.54
2022-09-23T02:28:11.752Z,84.92
2022-09-23T02:31:37.254Z,84.77
2022-09-23T02:35:10.418Z,84.71
2022-09-23T02:38:31.182Z,84.22
2022-09-23T02:41:55.614Z,84.23
2022-09-23T02:44:58.971Z,84.55
2022-09-23T02:48:27.196Z,83.79
2022-09-23T02:51:29.670Z,83.93
2022-09-23T02:54:35.455Z,83.47
2022-09-23T02:57:38.029Z,84.49
2022-09-23T03:01:06.221Z,84.96
2022-09-23T03:04:08.628Z,84.92
2022-09-23T03:07:48.252Z,84.77
2022-09-23T03:11:11.253Z,84.71
2022-09-23T03:14:32.119Z,83.11
2022-09-23T03:18:12.198Z,83.10
2022-09-23T03:21:38.476Z,83.63
2022-09-23T03:24:44.883Z,83.59
2022-09-23T03:27:46.942Z,84.43
2022-09-23T03:30:53.314Z,83.87
2022-09-23T03:33:58.123Z,83.89
2022-09-23T03:37:11.244Z,86.21
2022-09-23T03:40:17.385Z,85.92
2022-09-23T03:43:20.054Z,87.09
2022-09-23T03:46:25.339Z,88.25
2022-09-23T03:49:35.394Z,88.32
2022-09-23T03:52:39.779Z,89.88
2022-09-23T03:55:42.152Z,88.73
2022-09-23T03:58:46.431Z,87.37
2022-09-23T04:01:48.836Z,87.18
2022-09-23T04:04:51.384Z,86.26
2022-09-23T04:07:54.913Z,86.99
2022-09-23T04:11:04.726Z,86.36
2022-09-23T04:14:07.270Z,86.50
2022-09-23T04:17:09.771Z,85.94
2022-09-23T04:20:12.462Z,85.55
2022-09-23T04:23:14.599Z,85.52
2022-09-23T04:26:16.910Z,84.52
2022-09-23T04:29:19.659Z,83.98
2022-09-23T04:32:21.923Z,84.19
2022-09-23T04:35:23.925Z,83.69
2022-09-23T04:38:26.291Z,84.80
2022-09-23T04:41:28.375Z,85.04
2022-09-23T04:44:31.079Z,84.71
2022-09-23T04:47:33.165Z,84.58
2022-09-23T04:50:35.403Z,84.94
2022-09-23T04:53:39.286Z,86.28
2022-09-23T04:56:42.264Z,86.78
2022-09-23T04:59:45.316Z,87.11
2022-09-23T05:02:49.760Z,86.31
2022-09-23T05:05:51.880Z,85.94
2022-09-23T05:08:56.187Z,85.45
2022-09-23T05:11:58.301Z,85.42
2022-09-23T05:15:00.647Z,87.18
2022-09-23T05:18:02.710Z,88.35
2022-09-23T05:21:05.152Z,88.31
2022-09-23T05:24:07.486Z,88.62
2022-09-23T05:27:09.757Z,88.82
2022-09-23T05:30:12.509Z,89.30
2022-09-23T05:33:14.936Z,91.21
2022-09-23T05:36:20.726Z,92.22
2022-09-23T05:39:23.085Z,94.13
2022-09-23T05:42:25.203Z,94.40
2022-09-23T05:45:27.537Z,95.04
2022-09-23T05:48:31.942Z,95.24
2022-09-23T05:51:35.800Z,95.39
2022-09-23T05:54:38.451Z,95.73
2022-09-23T05:57:40.673Z,96.86
2022-09-23T06:00:44.210Z,97.59
2022-09-23T06:03:47.777Z,97.64
2022-09-23T06:06:49.781Z,98.76
2022-09-23T06:09:53.956Z,98.69
2022-09-23T06:12:55.997Z,98.10
2022-09-23T06:15:58.586Z,97.22
2022-09-23T06:19:06.154Z,97.12
2022-09-23T06:22:10.853Z,98.16
2022-09-23T06:25:14.173Z,99.13
2022-09-23T06:28:16.410Z,99.61
2022-09-23T06:31:18.500Z,100.00
2022-09-23T06:34:21.445Z,100.00
2022-09-23T06:37:24.301Z,100.00
2022-09-23T06:40:26.720Z,100.00
2022-09-23T06:43:29.461Z,100.00
2022-09-23T06:46:31.869Z,100.00
2022-09-23T06:49:34.008Z,100.00
2022-09-23T06:52:36.205Z,100.00
2022-09-23T06:55:38.342Z,100.00
2022-09-23T06:58:41.277Z,100.00
2022-09-23T07:01:45.360Z,100.00
2022-09-23T07:04:47.700Z,100.00
2022-09-23T07:07:49.814Z,100.00
2022-09-23T07:10:56.992Z,100.00
2022-09-23T07:13:59.049Z,100.00
2022-09-23T07:17:01.959Z,99.17
2022-09-23T07:20:04.274Z,98.43
2022-09-23T07:23:06.636Z,95.44
2022-09-23T07:26:08.927Z,89.71
2022-09-23T07:29:13.814Z,87.17
2022-09-23T07:32:16.751Z,86.72
2022-09-23T07:35:19.373Z,85.32
2022-09-23T07:38:24.731Z,82.73
2022-09-23T07:41:28.850Z,82.51
2022-09-23T07:44:32.037Z,81.51
2022-09-23T07:47:34.964Z,82.03
2022-09-23T07:50:39.465Z,79.41
2022-09-23T07:53:41.879Z,77.96
2022-09-23T07:56:44.433Z,77.32
2022-09-23T07:59:46.874Z,76.70
2022-09-23T08:02:52.798Z,74.78
2022-09-23T08:06:04.474Z,76.41
2022-09-23T08:09:06.607Z,73.36
2022-09-23T08:12:16.962Z,72.25
2022-09-23T08:15:18.925Z,71.59
2022-09-23T08:18:21.179Z,70.39
2022-09-23T08:21:23.352Z,70.67
2022-09-23T08:24:26.535Z,67.76
2022-09-23T08:27:29.717Z,67.97
2022-09-23T08:30:32.094Z,68.38
2022-09-23T08:33:34.167Z,67.97
2022-09-23T08:36:36.678Z,64.79
2022-09-23T08:39:38.700Z,63.14
2022-09-23T08:42:43.905Z,61.69
2022-09-23T08:45:46.488Z,62.37
2022-09-23T08:48:49.528Z,63.80
2022-09-23T08:51:54.873Z,61.17
2022-09-23T08:54:57.220Z,60.66
2022-09-23T08:58:25.349Z,58.12
2022-09-23T09:01:38.877Z,55.18
2022-09-23T09:04:44.434Z,57.45
2022-09-23T09:07:46.851Z,56.31
2022-09-23T09:10:49.618Z,52.49
2022-09-23T09:14:20.572Z,55.76
2022-09-23T09:17:30.640Z,53.40
2022-09-23T09:20:38.961Z,53.26
2022-09-23T09:23:58.297Z,54.03
2022-09-23T09:27:13.474Z,54.20
2022-09-23T09:30:16.575Z,52.32
2022-09-23T09:33:22.221Z,52.00
2022-09-23T09:36:40.128Z,52.29
2022-09-23T09:39:42.430Z,50.45
2022-09-23T09:42:49.515Z,51.79
2022-09-23T09:46:34.259Z,50.75
2022-09-23T09:49:40.795Z,49.61
2022-09-23T09:52:43.176Z,47.65
2022-09-23T09:55:46.152Z,48.79
2022-09-23T09:58:55.250Z,52.21
2022-09-23T10:02:24.476Z,48.60
2022-09-23T10:05:28.341Z,49.41
2022-09-23T10:08:35.047Z,49.52
2022-09-23T10:11:38.285Z,50.49
2022-09-23T10:14:40.362Z,50.10
2022-09-23T10:17:42.819Z,47.70
2022-09-23T10:20:46.189Z,48.15
2022-09-23T10:23:52.910Z,43.61
2022-09-23T10:27:04.501Z,43.65
2022-09-23T10:30:28.022Z,45.26
2022-09-23T10:33:31.701Z,48.99
2022-09-23T10:36:33.978Z,45.60
2022-09-23T10:39:54.546Z,43.01
2022-09-23T10:43:24.502Z,43.53
2022-09-23T10:46:39.708Z,44.56
2022-09-23T10:49:57.589Z,46.97
2022-09-23T10:53:11.909Z,47.44
2022-09-23T10:56:52.526Z,46.64
2022-09-23T11:00:14.651Z,50.80
2022-09-23T11:03:30.490Z,47.11
2022-09-23T11:07:01.680Z,44.26
2022-09-23T11:10:47.110Z,43.35
2022-09-23T11:14:08.198Z,45.01
2022-09-23T11:17:22.495Z,43.31
2022-09-23T11:20:58.709Z,45.14
2022-09-23T11:24:15.976Z,42.21
2022-09-23T11:27:42.950Z,40.79
2022-09-23T11:30:51.382Z,43.17
2022-09-23T11:34:00.546Z,41.58
2022-09-23T11:37:19.837Z,41.29
2022-09-23T11:40:31.675Z,42.39
2022-09-23T11:43:36.409Z,41.24
2022-09-23T11:46:42.482Z,42.96
2022-09-23T11:49:51.762Z,41.24
2022-09-23T11:53:02.669Z,40.34
2022-09-23T11:56:12.288Z,36.77
2022-09-23T11:59:43.438Z,39.23
2022-09-23T12:03:00.542Z,39.31
2022-09-23T12:06:15.131Z,40.19
2022-09-23T12:09:58.288Z,42.87
2022-09-23T12:13:27.302Z,41.33
2022-09-23T12:16:56.031Z,43.10
2022-09-23T12:20:01.045Z,42.84
2022-09-23T12:23:26.794Z,43.53
2022-09-23T12:26:29.870Z,45.12
2022-09-23T12:29:32.728Z,43.77
2022-09-23T12:32:34.874Z,42.33
2022-09-23T12:35:41.453Z,44.62
2022-09-23T12:38:52.634Z,43.40
2022-09-23T12:42:01.513Z,42.21
2022-09-23T12:45:38.664Z,44.26
2022-09-23T12:49:08.256Z,41.52
2022-09-23T12:52:16.713Z,40.96
2022-09-23T12:55:24.935Z,41.86
2022-09-23T12:58:58.259Z,41.45
2022-09-23T13:02:37.775Z,41.88
2022-09-23T13:06:17.115Z,44.42
2022-09-23T13:09:24.897Z,44.86
2022-09-23T13:12:33.476Z,45.72
2022-09-23T13:15:36.862Z,47.11
2022-09-23T13:18:51.055Z,47.49
2022-09-23T13:21:53.344Z,46.05
2022-09-23T13:25:01.083Z,46.74
2022-09-23T13:28:04.029Z,47.56
2022-09-23T13:31:10.909Z,47.05
2022-09-23T13:34:16.705Z,47.86
2022-09-23T13:37:24.076Z,48.84
2022-09-23T13:40:28.641Z,47.61
2022-09-23T13:43:58.606Z,46.54
2022-09-23T13:47:03.524Z,48.54
2022-09-23T13:50:06.353Z,48.11
2022-09-23T13:53:11.960Z,47.86
2022-09-23T13:56:15.603Z,46.15
2022-09-23T13:59:37.285Z,48.40
2022-09-23T14:02:47.101Z,46.69
2022-09-23T14:05:50.043Z,47.30
2022-09-23T14:08:52.448Z,46.57
2022-09-23T14:11:59.869Z,47.59
2022-09-23T14:15:02.029Z,46.67
2022-09-23T14:18:06.748Z,46.27
2022-09-23T14:21:35.391Z,47.25
2022-09-23T14:24:38.616Z,47.30
2022-09-23T14:27:42.222Z,49.25
2022-09-23T14:30:48.249Z,47.03
2022-09-23T14:33:50.610Z,47.28
2022-09-23T14:37:11.795Z,48.24
2022-09-23T14:40:17.472Z,47.73
2022-09-23T14:43:25.339Z,46.78
2022-09-23T14:46:30.764Z,49.04
2022-09-23T14:49:33.327Z,48.92
2022-09-23T14:52:35.486Z,48.84
2022-09-23T14:55:38.255Z,49.57
2022-09-23T14:58:51.975Z,51.08
2022-09-23T15:01:55.256Z,50.98
2022-09-23T15:05:17.890Z,51.04
2022-09-23T15:08:23.390Z,51.31
2022-09-23T15:11:26.732Z,53.22
2022-09-23T15:14:39.448Z,52.33
2022-09-23T15:17:43.359Z,53.71
2022-09-23T15:20:52.273Z,53.24
2022-09-23T15:23:55.664Z,52.12
2022-09-23T15:26:58.026Z,53.09
2022-09-23T15:30:19.657Z,52.62
2022-09-23T15:33:28.093Z,54.16
2022-09-23T15:36:30.235Z,52.81
2022-09-23T15:39:36.411Z,52.55
2022-09-23T15:42:38.760Z,53.63
2022-09-23T15:45:45.028Z,53.65
2022-09-23T15:49:01.413Z,53.57
2022-09-23T15:52:05.645Z,53.88
2022-09-23T15:55:24.177Z,52.91
2022-09-23T15:58:27.682Z,53.67
2022-09-23T16:01:36.489Z,55.11
2022-09-23T16:04:39.275Z,54.41
2022-09-23T16:07:41.439Z,54.67
2022-09-23T16:10:44.013Z,53.83
2022-09-23T16:13:46.859Z,54.38
2022-09-23T16:16:49.995Z,55.84
2022-09-23T16:19:52.428Z,55.74
2022-09-23T16:22:58.081Z,55.99
2022-09-23T16:26:09.649Z,56.30
2022-09-23T16:29:17.209Z,56.52
2022-09-23T16:32:22.405Z,57.55
2022-09-23T16:35:26.279Z,56.78
2022-09-23T16:38:29.242Z,57.05
2022-09-23T16:41:32.434Z,57.96
2022-09-23T16:44:36.639Z,58.34
2022-09-23T16:47:44.958Z,59.19
2022-09-23T16:50:47.707Z,58.70
2022-09-23T16:53:51.394Z,61.06
2022-09-23T16:56:55.307Z,60.55
2022-09-23T17:00:16.344Z,61.73
2022-09-23T17:03:37.035Z,61.68
2022-09-23T17:06:50.317Z,61.91
2022-09-23T17:09:52.642Z,61.43
2022-09-23T17:12:55.104Z,61.67
2022-09-23T17:15:57.723Z,62.22
2022-09-23T17:19:04.759Z,62.23
2022-09-23T17:22:08.000Z,63.45
2022-09-23T17:25:12.521Z,64.62
2022-09-23T17:28:16.863Z,65.47
2022-09-23T17:31:19.648Z,66.36
2022-09-23T17:34:22.032Z,67.06
2022-09-23T17:37:24.421Z,67.96
2022-09-23T17:40:26.783Z,68.82
2022-09-23T17:43:31.098Z,69.30
2022-09-23T17:46:33.203Z,66.88
2022-09-23T17:49:35.558Z,67.43
2022-09-23T17:52:37.737Z,67.74
2022-09-23T17:55:40.159Z,67.33
2022-09-23T17:58:44.061Z,68.10
2022-09-23T18:01:46.480Z,67.58
2022-09-23T18:04:49.095Z,66.45
2022-09-23T18:07:51.575Z,68.16
2022-09-23T18:10:53.582Z,69.40
2022-09-23T18:14:01.688Z,69.79
2022-09-23T18:17:03.878Z,70.96
2022-09-23T18:20:07.004Z,72.35
2022-09-23T18:23:09.160Z,72.33
2022-09-23T18:26:16.149Z,71.83
2022-09-23T18:29:18.696Z,71.96
2022-09-23T18:32:21.143Z,71.31
2022-09-23T18:35:23.804Z,72.80
2022-09-23T18:38:26.270Z,71.88
2022-09-23T18:41:28.577Z,71.89
2022-09-23T18:44:31.656Z,72.69
2022-09-23T18:47:52.721Z,72.82
2022-09-23T18:50:58.182Z,72.60
2022-09-23T18:54:01.654Z,71.84
2022-09-23T18:57:04.499Z,72.19
2022-09-23T19:00:09.229Z,72.56
2022-09-23T19:03:11.698Z,72.85
2022-09-23T19:06:21.038Z,72.94
2022-09-23T19:09:24.611Z,74.29
2022-09-23T19:12:26.793Z,73.72
2022-09-23T19:15:29.190Z,73.62
2022-09-23T19:18:32.144Z,74.14
2022-09-23T19:21:34.810Z,74.88
2022-09-23T19:24:37.012Z,74.44
2022-09-23T19:27:40.347Z,74.09
2022-09-23T19:30:42.536Z,73.88
2022-09-23T19:33:49.818Z,73.48
2022-09-23T19:36:57.327Z,73.68
2022-09-23T19:39:59.770Z,73.73
2022-09-23T19:43:01.822Z,74.50
2022-09-23T19:46:09.209Z,74.65
2022-09-23T19:49:11.913Z,74.55
2022-09-23T19:52:14.476Z,74.78
2022-09-23T19:55:16.584Z,74.52
2022-09-23T19:58:18.886Z,73.11
2022-09-23T20:01:22.324Z,73.95
2022-09-23T20:04:24.945Z,74.63
2022-09-23T20:07:27.027Z,74.40
2022-09-23T20:10:29.376Z,73.92
2022-09-23T20:13:33.895Z,73.67
2022-09-23T20:16:37.324Z,72.79
2022-09-23T20:19:40.572Z,73.29
2022-09-23T20:22:42.991Z,73.02
2022-09-23T20:26:03.526Z,73.69
2022-09-23T20:29:06.065Z,73.70
2022-09-23T20:32:09.333Z,73.94
2022-09-23T20:35:11.906Z,74.58
2022-09-23T20:38:14.013Z,73.86
2022-09-23T20:41:17.266Z,74.44
2022-09-23T20:44:19.380Z,75.40
2022-09-23T20:47:23.773Z,75.66
2022-09-23T20:50:25.931Z,73.84
2022-09-23T20:53:28.454Z,74.04
2022-09-23T20:56:31.062Z,74.31
2022-09-23T20:59:34.402Z,74.20
2022-09-23T21:02:36.664Z,74.64
2022-09-23T21:05:42.165Z,74.87
2022-09-23T21:08:44.892Z,75.67
2022-09-23T21:11:47.247Z,74.37
2022-09-23T21:14:49.402Z,75.38
2022-09-23T21:17:52.438Z,74.47
2022-09-23T21:20:58.104Z,76.22
2022-09-23T21:24:24.484Z,76.90
2022-09-23T21:27:23.021Z,78.75
2022-09-23T21:30:25.718Z,78.70
2022-09-23T21:33:28.690Z,78.30
2022-09-23T21:36:33.221Z,78.36
2022-09-23T21:39:35.355Z,78.26
2022-09-23T21:42:37.809Z,79.55
2022-09-23T21:45:40.172Z,79.54
2022-09-23T21:48:43.089Z,79.46
2022-09-23T21:51:45.363Z,80.15
2022-09-23T21:54:47.781Z,80.34
2022-09-23T21:57:51.921Z,79.67
2022-09-23T22:00:57.714Z,81.02
2022-09-23T22:04:08.225Z,82.07
2022-09-23T22:07:10.879Z,83.77
2022-09-23T22:10:12.936Z,83.96
2022-09-23T22:13:16.468Z,83.43
2022-09-23T22:16:19.043Z,83.76
2022-09-23T22:19:21.330Z,84.75
2022-09-23T22:22:23.426Z,84.55
2022-09-23T22:25:26.058Z,84.47
2022-09-23T22:28:46.868Z,84.12
2022-09-23T22:32:08.146Z,84.18
2022-09-23T22:35:17.955Z,83.70
2022-09-23T22:38:21.220Z,82.45
2022-09-23T22:41:24.368Z,83.44
2022-09-23T22:44:26.694Z,83.60
2022-09-23T22:47:28.700Z,84.34
2022-09-23T22:50:30.958Z,83.88
2022-09-23T22:53:33.577Z,83.74
2022-09-23T22:56:36.065Z,82.72
2022-09-23T22:59:38.284Z,82.06
2022-09-23T23:02:42.479Z,81.92
2022-09-23T23:05:45.892Z,84.09
2022-09-23T23:08:48.193Z,85.56
2022-09-23T23:11:50.210Z,85.51
2022-09-23T23:14:52.678Z,84.89
2022-09-23T23:17:59.212Z,83.49
2022-09-23T23:21:16.034Z,81.70
2022-09-23T23:24:23.250Z,82.11
2022-09-23T23:27:25.632Z,82.91
2022-09-23T23:30:27.683Z,83.99
2022-09-23T23:33:29.930Z,84.09
2022-09-23T23:36:31.951Z,83.27
2022-09-23T23:39:34.716Z,82.64
2022-09-23T23:42:36.805Z,82.02
2022-09-23T23:45:39.111Z,82.45
2022-09-23T23:48:43.015Z,80.80
2022-09-23T23:51:45.379Z,79.77
2022-09-23T23:54:47.405Z,79.77
2022-09-23T23:57:51.640Z,80.04
